^^
Your Local Weather - Clay, NY Station Historical Data
Daily Summary for August 17, 2017 Units:  English    Metric   Both
« Previous Day
Next Day »
Daily Weekly Monthly Yearly Custom
  High: Low: Average:
Temperature: 77.6 °F 49.3 °F 64.8 °F
Dew Point: 63.5 °F 47.6 °F 55.7 °F
Humidity: 95% 50% 75%
Wind Speed: 4.0mph 0.0mph 1mph
Wind Gust: 7.0mph - -
Wind- - ENE
Pressure: 30.04 in 29.79 in -
Precipitation: 0.00 in    
Historical Graphs
 
 
Tabular Data for August 17, 2017
Time Temperature Dew Point Pressure Wind Wind Speed Wind Gust Humidity Rainfall Rate (Hourly) solar
00:02 53.7 °F 51.1 °F 30.04 in Calm     91% 0.00 in 0 W/m2
00:08 53.4 °F 50.8 °F 30.03 in Calm     91% 0.00 in 0 W/m2
00:14 53.3 °F 51.0 °F 30.03 in Calm     92% 0.00 in 0 W/m2
00:20 53.2 °F 50.6 °F 30.04 in Calm     91% 0.00 in 0 W/m2
00:26 53.1 °F 50.5 °F 30.04 in Calm     91% 0.00 in 0 W/m2
00:32 53.0 °F 50.7 °F 30.04 in Calm     92% 0.00 in 0 W/m2
00:38 52.9 °F 50.6 °F 30.04 in Calm     92% 0.00 in 0 W/m2
00:44 52.9 °F 50.6 °F 30.04 in Calm     92% 0.00 in 0 W/m2
00:50 52.8 °F 50.5 °F 30.04 in Calm     92% 0.00 in 0 W/m2
00:56 52.9 °F 50.6 °F 30.04 in Calm     92% 0.00 in 0 W/m2
01:02 52.8 °F 50.5 °F 30.04 in Calm     92% 0.00 in 0 W/m2
01:08 52.7 °F 50.4 °F 30.04 in Calm     92% 0.00 in 0 W/m2
01:14 52.6 °F 50.3 °F 30.04 in Calm     92% 0.00 in 0 W/m2
01:20 52.6 °F 50.3 °F 30.04 in Calm     92% 0.00 in 0 W/m2
01:26 52.4 °F 50.1 °F 30.04 in Calm     92% 0.00 in 0 W/m2
01:30 52.2 °F 49.9 °F 30.03 in Calm     92% 0.00 in 0 W/m2
01:36 52.0 °F 49.7 °F 30.04 in Calm     92% 0.00 in 0 W/m2
01:42 51.9 °F 49.9 °F 30.04 in Calm     93% 0.00 in 0 W/m2
01:48 51.9 °F 49.9 °F 30.04 in Calm     93% 0.00 in 0 W/m2
01:54 51.8 °F 49.8 °F 30.04 in Calm     93% 0.00 in 0 W/m2
02:00 51.6 °F 49.6 °F 30.04 in Calm     93% 0.00 in 0 W/m2
02:06 51.5 °F 49.5 °F 30.04 in Calm     93% 0.00 in 0 W/m2
02:12 51.4 °F 49.4 °F 30.04 in Calm     93% 0.00 in 0 W/m2
02:18 51.2 °F 49.2 °F 30.04 in Calm     93% 0.00 in 0 W/m2
02:24 51.3 °F 49.3 °F 30.04 in Calm     93% 0.00 in 0 W/m2
02:30 51.5 °F 49.5 °F 30.04 in Calm     93% 0.00 in 0 W/m2
02:36 51.3 °F 49.3 °F 30.04 in Calm     93% 0.00 in 0 W/m2
02:42 51.2 °F 49.2 °F 30.04 in Calm     93% 0.00 in 0 W/m2
02:48 51.1 °F 49.1 °F 30.04 in Calm     93% 0.00 in 0 W/m2
02:54 51.0 °F 49.0 °F 30.03 in Calm     93% 0.00 in 0 W/m2
03:00 50.9 °F 48.9 °F 30.03 in Calm     93% 0.00 in 0 W/m2
03:06 50.9 °F 48.9 °F 30.03 in Calm     93% 0.00 in 0 W/m2
03:12 51.1 °F 49.1 °F 30.03 in Calm     93% 0.00 in 0 W/m2
03:18 51.1 °F 49.1 °F 30.03 in Calm     93% 0.00 in 0 W/m2
03:24 51.0 °F 49.0 °F 30.03 in Calm     93% 0.00 in 0 W/m2
03:30 51.1 °F 49.1 °F 30.03 in Calm     93% 0.00 in 0 W/m2
03:36 51.0 °F 49.0 °F 30.03 in Calm     93% 0.00 in 0 W/m2
03:42 50.7 °F 48.7 °F 30.03 in Calm     93% 0.00 in 0 W/m2
03:48 50.5 °F 48.6 °F 30.03 in Calm     93% 0.00 in 0 W/m2
03:54 50.3 °F 48.4 °F 30.03 in Calm     93% 0.00 in 0 W/m2
04:00 50.3 °F 48.4 °F 30.03 in Calm     93% 0.00 in 0 W/m2
04:06 50.2 °F 48.3 °F 30.03 in Calm     93% 0.00 in 0 W/m2
04:12 50.2 °F 48.5 °F 30.03 in Calm     94% 0.00 in 0 W/m2
04:18 50.3 °F 48.6 °F 30.03 in Calm     94% 0.00 in 0 W/m2
04:24 50.2 °F 48.5 °F 30.03 in Calm     94% 0.00 in 0 W/m2
04:30 50.0 °F 48.1 °F 30.03 in Calm     93% 0.00 in 0 W/m2
04:36 50.1 °F 48.2 °F 30.03 in Calm     93% 0.00 in 0 W/m2
04:42 50.2 °F 48.5 °F 30.03 in Calm     94% 0.00 in 0 W/m2
04:48 50.4 °F 48.7 °F 30.03 in Calm     94% 0.00 in 0 W/m2
04:54 50.4 °F 48.7 °F 30.02 in Calm     94% 0.00 in 0 W/m2
05:00 50.2 °F 48.5 °F 30.02 in Calm     94% 0.00 in 0 W/m2
05:06 50.0 °F 48.3 °F 30.03 in Calm     94% 0.00 in 0 W/m2
05:12 50.0 °F 48.3 °F 30.03 in Calm     94% 0.00 in 0 W/m2
05:18 49.9 °F 48.2 °F 30.03 in Calm     94% 0.00 in 0 W/m2
05:24 49.8 °F 48.1 °F 30.03 in Calm     94% 0.00 in 0 W/m2
05:30 49.7 °F 48.0 °F 30.03 in Calm     94% 0.00 in 0 W/m2
05:36 49.7 °F 48.0 °F 30.03 in Calm     94% 0.00 in 0 W/m2
05:42 49.5 °F 47.8 °F 30.03 in Calm     94% 0.00 in 0 W/m2
05:48 49.4 °F 47.7 °F 30.03 in Calm     94% 0.00 in 0 W/m2
05:54 49.4 °F 47.7 °F 30.03 in Calm     94% 0.00 in 0 W/m2
06:00 49.3 °F 47.6 °F 30.03 in Calm     94% 0.00 in 0 W/m2
06:06 49.3 °F 47.6 °F 30.03 in Calm     94% 0.00 in 0 W/m2
06:12 49.5 °F 47.8 °F 30.03 in Calm     94% 0.00 in 0 W/m2
06:18 49.4 °F 47.7 °F 30.03 in Calm     94% 0.00 in 5 W/m2
06:24 49.6 °F 47.9 °F 30.03 in Calm     94% 0.00 in 7 W/m2
06:30 49.9 °F 48.2 °F 30.04 in Calm     94% 0.00 in 9 W/m2
06:36 49.9 °F 48.2 °F 30.03 in Calm     94% 0.00 in 16 W/m2
06:42 50.2 °F 48.5 °F 30.03 in Calm     94% 0.00 in 21 W/m2
06:48 50.5 °F 48.8 °F 30.03 in Calm   1.0 mph 94% 0.00 in 28 W/m2
06:54 50.6 °F 48.9 °F 30.03 in Calm     94% 0.00 in 37 W/m2
07:00 50.8 °F 49.1 °F 30.04 in Calm     94% 0.00 in 33 W/m2
07:06 51.1 °F 49.4 °F 30.04 in Calm     94% 0.00 in 69 W/m2
07:12 51.5 °F 49.8 °F 30.04 in Calm     94% 0.00 in 44 W/m2
07:18 51.7 °F 50.0 °F 30.04 in Calm   1.0 mph 94% 0.00 in 127 W/m2
07:24 52.2 °F 50.5 °F 30.04 in Calm     94% 0.00 in 118 W/m2
07:30 52.9 °F 51.2 °F 30.04 in Calm     94% 0.00 in 121 W/m2
07:36 53.2 °F 51.8 °F 30.04 in Calm     95% 0.00 in 100 W/m2
07:42 53.4 °F 51.7 °F 30.04 in Calm     94% 0.00 in 111 W/m2
07:48 53.9 °F 52.2 °F 30.04 in Calm     94% 0.00 in 176 W/m2
07:54 54.5 °F 53.1 °F 30.04 in Calm     95% 0.00 in 202 W/m2
08:00 55.1 °F 53.7 °F 30.04 in Calm     95% 0.00 in 232 W/m2
08:06 55.5 °F 53.8 °F 30.04 in Calm     94% 0.00 in 109 W/m2
08:12 56.3 °F 54.6 °F 30.04 in Calm     94% 0.00 in 220 W/m2
08:18 57.0 °F 55.3 °F 30.04 in Calm   2.0 mph 94% 0.00 in 125 W/m2
08:24 57.3 °F 55.0 °F 30.04 in Calm   1.0 mph 92% 0.00 in 104 W/m2
08:30 57.4 °F 54.5 °F 30.04 in ESE 1.0 mph 1.0 mph 90% 0.00 in 74 W/m2
08:36 57.7 °F 54.2 °F 30.04 in ENE 1.0 mph 3.0 mph 88% 0.00 in 86 W/m2
08:42 58.1 °F 53.9 °F 30.04 in ENE 1.0 mph 2.0 mph 86% 0.00 in 197 W/m2
08:48 58.7 °F 54.5 °F 30.04 in East 1.0 mph 2.0 mph 86% 0.00 in 195 W/m2
08:54 59.2 °F 54.4 °F 30.04 in NE 1.0 mph 3.0 mph 84% 0.00 in 188 W/m2
09:00 60.0 °F 55.2 °F 30.04 in NE 1.0 mph 3.0 mph 84% 0.00 in 83 W/m2
09:06 60.6 °F 54.7 °F 30.04 in NE 1.0 mph 3.0 mph 81% 0.00 in 151 W/m2
09:12 60.9 °F 54.7 °F 30.04 in NE 1.0 mph 4.0 mph 80% 0.00 in 162 W/m2
09:18 61.6 °F 55.0 °F 30.04 in SE 1.0 mph 4.0 mph 79% 0.00 in 501 W/m2
09:24 62.2 °F 54.9 °F 30.04 in ESE 1.0 mph 2.0 mph 77% 0.00 in 531 W/m2
09:30 63.1 °F 55.4 °F 30.03 in SE 1.0 mph 1.0 mph 76% 0.00 in 550 W/m2
09:36 64.3 °F 56.2 °F 30.03 in East 1.0 mph 3.0 mph 75% 0.00 in 575 W/m2
09:42 65.1 °F 55.1 °F 30.03 in SE 1.0 mph 2.0 mph 70% 0.00 in 492 W/m2
09:48 65.7 °F 55.6 °F 30.03 in ENE 1.0 mph 5.0 mph 70% 0.00 in 555 W/m2
09:54 65.9 °F 55.4 °F 30.03 in SE 1.0 mph 4.0 mph 69% 0.00 in 573 W/m2
10:00 66.6 °F 56.1 °F 30.03 in ESE 1.0 mph 1.0 mph 69% 0.00 in 571 W/m2
10:06 67.1 °F 57.0 °F 30.02 in SE 1.0 mph 3.0 mph 70% 0.00 in 650 W/m2
10:12 67.8 °F 55.6 °F 30.03 in NE 1.0 mph 3.0 mph 65% 0.00 in 696 W/m2
10:18 68.0 °F 54.5 °F 30.02 in NE 2.0 mph 4.0 mph 62% 0.00 in 682 W/m2
10:24 68.3 °F 54.8 °F 30.02 in ENE 2.0 mph 6.0 mph 62% 0.00 in 703 W/m2
10:30 68.7 °F 54.7 °F 30.02 in ENE 2.0 mph 2.0 mph 61% 0.00 in 728 W/m2
10:36 69.7 °F 58.3 °F 30.02 in ESE 2.0 mph 3.0 mph 67% 0.00 in 735 W/m2
10:42 69.6 °F 56.4 °F 30.02 in East 1.0 mph 1.0 mph 63% 0.00 in 756 W/m2
10:48 69.9 °F 55.4 °F 30.01 in NE 2.0 mph 2.0 mph 60% 0.00 in 770 W/m2
10:54 70.4 °F 55.8 °F 30.01 in NE 2.0 mph 3.0 mph 60% 0.00 in 775 W/m2
11:00 70.1 °F 55.1 °F 30.01 in ENE 3.0 mph 5.0 mph 59% 0.00 in 788 W/m2
11:06 70.7 °F 55.7 °F 30.01 in ENE 3.0 mph 7.0 mph 59% 0.00 in 795 W/m2
11:12 70.7 °F 54.2 °F 30.00 in ENE 3.0 mph 5.0 mph 56% 0.00 in 803 W/m2
11:18 70.9 °F 52.9 °F 30.00 in East 3.0 mph 5.0 mph 53% 0.00 in 812 W/m2
11:24 71.4 °F 54.9 °F 30.00 in NE 2.0 mph 5.0 mph 56% 0.00 in 828 W/m2
11:30 71.0 °F 54.5 °F 30.00 in ENE 2.0 mph 4.0 mph 56% 0.00 in 853 W/m2
11:36 71.9 °F 55.8 °F 30.00 in East 2.0 mph 4.0 mph 57% 0.00 in 884 W/m2
11:44 72.3 °F 58.1 °F 30.00 in SSE 1.0 mph 6.0 mph 61% 0.00 in 809 W/m2
11:50 72.3 °F 57.6 °F 29.99 in NNE 2.0 mph 6.0 mph 60% 0.00 in 849 W/m2
11:56 72.1 °F 56.0 °F 29.99 in ENE 3.0 mph 6.0 mph 57% 0.00 in 849 W/m2
12:02 72.2 °F 55.1 °F 29.99 in ENE 3.0 mph 3.0 mph 55% 0.00 in 853 W/m2
12:08 72.3 °F 56.2 °F 29.98 in ESE 3.0 mph 3.0 mph 57% 0.00 in 856 W/m2
12:14 73.2 °F 58.0 °F 29.98 in ENE 2.0 mph 7.0 mph 59% 0.00 in 861 W/m2
12:20 72.9 °F 56.3 °F 29.98 in ENE 3.0 mph 3.0 mph 56% 0.00 in 865 W/m2
12:26 73.2 °F 58.0 °F 29.98 in ESE 2.0 mph 7.0 mph 59% 0.00 in 868 W/m2
12:32 74.1 °F 57.4 °F 29.98 in NE 2.0 mph 3.0 mph 56% 0.00 in 867 W/m2
12:38 74.2 °F 58.0 °F 29.98 in East 3.0 mph 3.0 mph 57% 0.00 in 870 W/m2
12:44 74.1 °F 57.9 °F 29.98 in NNE 2.0 mph 5.0 mph 57% 0.00 in 861 W/m2
12:50 74.5 °F 59.2 °F 29.97 in NE 2.0 mph 2.0 mph 59% 0.00 in 842 W/m2
12:56 74.9 °F 58.6 °F 29.97 in ESE 2.0 mph 4.0 mph 57% 0.00 in 842 W/m2
13:02 75.4 °F 58.6 °F 29.96 in NNE 1.0 mph 1.0 mph 56% 0.00 in 853 W/m2
13:08 75.2 °F 60.8 °F 29.96 in SSE 2.0 mph 6.0 mph 61% 0.00 in 875 W/m2
13:14 75.3 °F 59.0 °F 29.96 in ENE 2.0 mph 2.0 mph 57% 0.00 in 895 W/m2
13:20 75.1 °F 58.3 °F 29.96 in SE 3.0 mph 5.0 mph 56% 0.00 in 891 W/m2
13:26 74.8 °F 58.1 °F 29.95 in ENE 3.0 mph 5.0 mph 56% 0.00 in 918 W/m2
13:32 74.5 °F 59.2 °F 29.95 in NNE 3.0 mph 5.0 mph 59% 0.00 in 694 W/m2
13:38 75.3 °F 59.5 °F 29.95 in NNE 3.0 mph 7.0 mph 58% 0.00 in 861 W/m2
13:44 75.4 °F 58.6 °F 29.94 in North 3.0 mph 7.0 mph 56% 0.00 in 858 W/m2
13:50 75.0 °F 59.2 °F 29.95 in ENE 3.0 mph 3.0 mph 58% 0.00 in 844 W/m2
13:56 75.7 °F 60.4 °F 29.94 in ENE 3.0 mph 5.0 mph 59% 0.00 in 824 W/m2
14:02 75.7 °F 58.4 °F 29.94 in ENE 3.0 mph 4.0 mph 55% 0.00 in 835 W/m2
14:08 75.9 °F 58.1 °F 29.93 in NE 3.0 mph 6.0 mph 54% 0.00 in 817 W/m2
14:14 76.2 °F 57.8 °F 29.93 in NE 3.0 mph 6.0 mph 53% 0.00 in 728 W/m2
14:20 76.2 °F 60.8 °F 29.93 in ENE 3.0 mph 5.0 mph 59% 0.00 in 772 W/m2
14:22 76.2 °F 58.3 °F 29.93 in NNW 3.0 mph 5.0 mph 54% 0.00 in 847 W/m2
14:28 76.4 °F 58.0 °F 29.93 in NE 4.0 mph 7.0 mph 53% 0.00 in 863 W/m2
14:34 77.0 °F 57.5 °F 29.93 in NNE 3.0 mph 4.0 mph 51% 0.00 in 884 W/m2
14:40 77.6 °F 57.5 °F 29.92 in East 3.0 mph 3.0 mph 50% 0.00 in 789 W/m2
14:46 77.4 °F 58.9 °F 29.92 in NNE 2.0 mph 3.0 mph 53% 0.00 in 687 W/m2
14:52 76.7 °F 58.3 °F 29.92 in North 2.0 mph 3.0 mph 53% 0.00 in 469 W/m2
14:58 77.0 °F 58.0 °F 29.92 in NE 3.0 mph 5.0 mph 52% 0.00 in 545 W/m2
15:04 76.8 °F 57.8 °F 29.92 in NE 2.0 mph 3.0 mph 52% 0.00 in 406 W/m2
15:10 76.7 °F 58.3 °F 29.91 in ENE 2.0 mph 3.0 mph 53% 0.00 in 404 W/m2
15:16 76.7 °F 56.7 °F 29.91 in NE 2.0 mph 4.0 mph 50% 0.00 in 466 W/m2
15:22 76.1 °F 57.2 °F 29.91 in NE 3.0 mph 3.0 mph 52% 0.00 in 374 W/m2
15:28 76.5 °F 58.6 °F 29.90 in NNE 3.0 mph 4.0 mph 54% 0.00 in 599 W/m2
15:34 76.6 °F 57.1 °F 29.90 in ENE 3.0 mph 3.0 mph 51% 0.00 in 591 W/m2
15:40 76.3 °F 57.4 °F 29.90 in NE 4.0 mph 4.0 mph 52% 0.00 in 274 W/m2
15:46 75.9 °F 58.1 °F 29.90 in East 2.0 mph 4.0 mph 54% 0.00 in 466 W/m2
15:52 76.3 °F 56.8 °F 29.90 in ENE 2.0 mph 4.0 mph 51% 0.00 in 290 W/m2
15:58 76.3 °F 58.9 °F 29.89 in NNE 2.0 mph 4.0 mph 55% 0.00 in 257 W/m2
16:04 76.0 °F 58.2 °F 29.89 in NE 1.0 mph 5.0 mph 54% 0.00 in 251 W/m2
16:10 75.7 °F 57.9 °F 29.89 in NE 2.0 mph 2.0 mph 54% 0.00 in 262 W/m2
16:16 75.8 °F 59.5 °F 29.89 in NNE 1.0 mph 2.0 mph 57% 0.00 in 264 W/m2
16:22 76.1 °F 58.2 °F 29.89 in NNE 1.0 mph 1.0 mph 54% 0.00 in 255 W/m2
16:28 76.1 °F 58.2 °F 29.89 in ENE 2.0 mph 4.0 mph 54% 0.00 in 287 W/m2
16:34 75.8 °F 57.4 °F 29.89 in ENE 3.0 mph 3.0 mph 53% 0.00 in 279 W/m2
16:40 75.8 °F 57.4 °F 29.89 in ENE 3.0 mph 3.0 mph 53% 0.00 in 294 W/m2
16:46 76.1 °F 58.2 °F 29.89 in NNE 1.0 mph 3.0 mph 54% 0.00 in 239 W/m2
16:52 75.9 °F 58.1 °F 29.89 in NE 1.0 mph 1.0 mph 54% 0.00 in 211 W/m2
16:58 75.7 °F 60.4 °F 29.88 in NE 1.0 mph 2.0 mph 59% 0.00 in 200 W/m2
17:04 75.7 °F 58.9 °F 29.88 in NE 1.0 mph 1.0 mph 56% 0.00 in 200 W/m2
17:10 75.6 °F 58.8 °F 29.88 in NE 1.0 mph 1.0 mph 56% 0.00 in 185 W/m2
17:16 75.5 °F 58.7 °F 29.87 in NE 2.0 mph 3.0 mph 56% 0.00 in 181 W/m2
17:22 75.5 °F 59.2 °F 29.87 in ENE 2.0 mph 2.0 mph 57% 0.00 in 165 W/m2
17:28 75.4 °F 60.1 °F 29.87 in East 1.0 mph 3.0 mph 59% 0.00 in 153 W/m2
17:34 75.3 °F 60.0 °F 29.87 in East 1.0 mph 1.0 mph 59% 0.00 in 134 W/m2
17:40 75.3 °F 60.5 °F 29.87 in Calm   1.0 mph 60% 0.00 in 125 W/m2
17:46 75.2 °F 60.4 °F 29.87 in Calm   1.0 mph 60% 0.00 in 127 W/m2
17:52 75.1 °F 59.8 °F 29.86 in ENE 1.0 mph 1.0 mph 59% 0.00 in 132 W/m2
17:58 75.1 °F 60.3 °F 29.86 in ENE 1.0 mph 4.0 mph 60% 0.00 in 135 W/m2
18:04 75.1 °F 60.7 °F 29.86 in East 1.0 mph 1.0 mph 61% 0.00 in 139 W/m2
18:10 75.2 °F 60.8 °F 29.86 in Calm   2.0 mph 61% 0.00 in 114 W/m2
18:16 75.0 °F 60.2 °F 29.85 in NE 1.0 mph 2.0 mph 60% 0.00 in 95 W/m2
18:22 74.8 °F 60.4 °F 29.85 in NE 1.0 mph 3.0 mph 61% 0.00 in 86 W/m2
18:28 74.7 °F 60.4 °F 29.85 in SE 1.0 mph 4.0 mph 61% 0.00 in 70 W/m2
18:34 74.6 °F 60.7 °F 29.85 in SE 1.0 mph 1.0 mph 62% 0.00 in 56 W/m2
18:40 74.4 °F 61.0 °F 29.85 in NNE 1.0 mph 2.0 mph 63% 0.00 in 49 W/m2
18:46 74.2 °F 60.8 °F 29.84 in East 1.0 mph 2.0 mph 63% 0.00 in 44 W/m2
18:52 74.0 °F 60.2 °F 29.84 in SE 1.0 mph 1.0 mph 62% 0.00 in 39 W/m2
18:58 73.9 °F 60.5 °F 29.84 in NE 1.0 mph 1.0 mph 63% 0.00 in 33 W/m2
19:04 73.8 °F 60.4 °F 29.84 in NE 1.0 mph 1.0 mph 63% 0.00 in 23 W/m2
19:10 73.6 °F 60.7 °F 29.84 in ENE 1.0 mph 1.0 mph 64% 0.00 in 21 W/m2
19:16 73.5 °F 60.6 °F 29.83 in ENE 1.0 mph 1.0 mph 64% 0.00 in 18 W/m2
19:22 73.3 °F 60.8 °F 29.83 in East 1.0 mph 2.0 mph 65% 0.00 in 12 W/m2
19:28 73.1 °F 61.1 °F 29.84 in East 1.0 mph 2.0 mph 66% 0.00 in 12 W/m2
19:34 73.0 °F 61.0 °F 29.84 in East 1.0 mph 2.0 mph 66% 0.00 in 12 W/m2
19:40 72.8 °F 61.2 °F 29.84 in East 1.0 mph 1.0 mph 67% 0.00 in 9 W/m2
19:46 72.8 °F 61.2 °F 29.83 in East 1.0 mph 3.0 mph 67% 0.00 in 5 W/m2
19:52 72.7 °F 61.1 °F 29.83 in East 1.0 mph 2.0 mph 67% 0.00 in 5 W/m2
19:58 72.6 °F 61.0 °F 29.83 in ENE 1.0 mph 2.0 mph 67% 0.00 in 7 W/m2
20:04 72.6 °F 61.4 °F 29.83 in ENE 1.0 mph 1.0 mph 68% 0.00 in 5 W/m2
20:10 72.5 °F 61.3 °F 29.83 in ENE 1.0 mph 1.0 mph 68% 0.00 in 0 W/m2
20:16 72.4 °F 61.2 °F 29.82 in ENE 1.0 mph 4.0 mph 68% 0.00 in 0 W/m2
20:22 72.4 °F 61.7 °F 29.83 in ENE 1.0 mph 4.0 mph 69% 0.00 in 0 W/m2
20:28 72.4 °F 61.7 °F 29.83 in ENE 1.0 mph 4.0 mph 69% 0.00 in 0 W/m2
20:34 72.3 °F 61.6 °F 29.83 in East 1.0 mph 1.0 mph 69% 0.00 in 0 W/m2
20:40 72.1 °F 61.8 °F 29.82 in ENE 1.0 mph 1.0 mph 70% 0.00 in 0 W/m2
20:46 72.0 °F 62.1 °F 29.82 in Calm   1.0 mph 71% 0.00 in 0 W/m2
20:52 71.8 °F 61.9 °F 29.82 in ENE 1.0 mph 2.0 mph 71% 0.00 in 0 W/m2
20:58 71.8 °F 61.9 °F 29.82 in East 1.0 mph 2.0 mph 71% 0.00 in 0 W/m2
21:04 71.8 °F 61.9 °F 29.82 in SSE 1.0 mph 1.0 mph 71% 0.00 in 0 W/m2
21:10 71.6 °F 62.1 °F 29.82 in ENE 1.0 mph 3.0 mph 72% 0.00 in 0 W/m2
21:16 71.6 °F 61.7 °F 29.82 in ENE 1.0 mph 3.0 mph 71% 0.00 in 0 W/m2
21:22 71.4 °F 61.5 °F 29.82 in ENE 1.0 mph 1.0 mph 71% 0.00 in 0 W/m2
21:28 71.3 °F 61.8 °F 29.82 in NE 1.0 mph 3.0 mph 72% 0.00 in 0 W/m2
21:34 71.2 °F 61.7 °F 29.82 in East 1.0 mph 2.0 mph 72% 0.00 in 0 W/m2
21:40 71.1 °F 62.0 °F 29.82 in NE 1.0 mph 1.0 mph 73% 0.00 in 0 W/m2
21:46 71.0 °F 61.9 °F 29.82 in Calm   1.0 mph 73% 0.00 in 0 W/m2
21:52 70.9 °F 62.2 °F 29.81 in East 1.0 mph 1.0 mph 74% 0.00 in 0 W/m2
21:58 70.7 °F 62.4 °F 29.81 in East 1.0 mph 2.0 mph 75% 0.00 in 0 W/m2
22:04 70.6 °F 62.3 °F 29.81 in ENE 1.0 mph 3.0 mph 75% 0.00 in 0 W/m2
22:10 70.7 °F 62.4 °F 29.81 in ENE 1.0 mph 1.0 mph 75% 0.00 in 0 W/m2
22:16 70.6 °F 62.3 °F 29.81 in ENE 1.0 mph 1.0 mph 75% 0.00 in 0 W/m2
22:22 70.7 °F 62.4 °F 29.81 in East 1.0 mph 2.0 mph 75% 0.00 in 0 W/m2
22:28 70.7 °F 62.4 °F 29.81 in SE 1.0 mph 2.0 mph 75% 0.00 in 0 W/m2
22:34 70.7 °F 62.4 °F 29.81 in ENE 2.0 mph 3.0 mph 75% 0.00 in 0 W/m2
22:40 70.8 °F 62.9 °F 29.81 in NE 2.0 mph 2.0 mph 76% 0.00 in 0 W/m2
22:46 70.8 °F 62.9 °F 29.81 in East 2.0 mph 3.0 mph 76% 0.00 in 0 W/m2
22:52 70.8 °F 62.5 °F 29.81 in NE 1.0 mph 2.0 mph 75% 0.00 in 0 W/m2
22:58 70.6 °F 62.7 °F 29.81 in East 1.0 mph 2.0 mph 76% 0.00 in 0 W/m2
23:04 70.4 °F 62.5 °F 29.81 in East 1.0 mph 1.0 mph 76% 0.00 in 0 W/m2
23:10 70.3 °F 62.7 °F 29.80 in East 1.0 mph 1.0 mph 77% 0.00 in 0 W/m2
23:24 70.1 °F 62.9 °F 29.80 in ENE 1.0 mph 1.0 mph 78% 0.00 in 0 W/m2
23:30 69.9 °F 63.1 °F 29.79 in Calm   3.0 mph 79% 0.00 in 0 W/m2
23:36 70.0 °F 62.8 °F 29.79 in Calm   3.0 mph 78% 0.00 in 0 W/m2
23:42 69.9 °F 63.1 °F 29.79 in Calm   1.0 mph 79% 0.00 in 0 W/m2
23:46 69.7 °F 63.3 °F 29.79 in Calm   1.0 mph 80% 0.00 in 0 W/m2
23:52 69.4 °F 63.3 °F 29.79 in ENE 1.0 mph 1.0 mph 81% 0.00 in 0 W/m2
23:56 69.2 °F 63.5 °F 29.79 in ENE 1.0 mph 2.0 mph 82% 0.00 in 0 W/m2
Country Meadow, Clay, NY, USA
Compliments of Weather Underground - 2 mb